createdAt,value
2023-06-07T00:01:09.608Z,102034.47
2023-06-07T00:03:39.066Z,102028.72
2023-06-07T00:06:10.221Z,102031.31
2023-06-07T00:08:38.592Z,102031.34
2023-06-07T00:11:09.172Z,102031.25
2023-06-07T00:13:38.136Z,102040.72
2023-06-07T00:16:06.795Z,102045.94
2023-06-07T00:18:34.913Z,102028.09
2023-06-07T00:21:03.089Z,102049.94
2023-06-07T00:23:35.268Z,102042.03
2023-06-07T00:26:03.439Z,102049.91
2023-06-07T00:28:31.382Z,102053.47
2023-06-07T00:30:59.367Z,102044.56
2023-06-07T00:33:28.057Z,102059.34
2023-06-07T00:35:56.937Z,102060.19
2023-06-07T00:38:25.360Z,102064.84
2023-06-07T00:40:54.951Z,102073.75
2023-06-07T00:43:22.894Z,102043.91
2023-06-07T00:45:51.067Z,102072.97
2023-06-07T00:48:19.657Z,102071.25
2023-06-07T00:50:48.298Z,102071.28
2023-06-07T00:53:16.976Z,102038.09
2023-06-07T00:55:45.258Z,102068.03
2023-06-07T00:58:15.174Z,102069.72
2023-06-07T01:00:43.908Z,102069.72
2023-06-07T01:03:12.629Z,102074.81
2023-06-07T01:05:40.856Z,102067.31
2023-06-07T01:08:09.046Z,102042.75
2023-06-07T01:10:37.635Z,102065.06
2023-06-07T01:13:06.450Z,102076.34
2023-06-07T01:15:36.153Z,102071.25
2023-06-07T01:18:06.151Z,102074.56
2023-06-07T01:20:37.795Z,102071.22
2023-06-07T01:23:10.371Z,102070.50
2023-06-07T01:25:39.774Z,102085.09
2023-06-07T01:28:08.649Z,102086.84
2023-06-07T01:30:41.544Z,102082.50
2023-06-07T01:33:10.263Z,102086.84
2023-06-07T01:35:38.634Z,102085.91
2023-06-07T01:38:07.404Z,102086.78
2023-06-07T01:40:36.634Z,102090.31
2023-06-07T01:43:07.273Z,102089.41
2023-06-07T01:45:35.503Z,102089.53
2023-06-07T01:48:06.385Z,102091.25
2023-06-07T01:50:34.493Z,102091.22
2023-06-07T01:53:02.618Z,102088.50
2023-06-07T01:55:31.507Z,102086.81
2023-06-07T01:58:08.372Z,102087.78
2023-06-07T02:00:48.299Z,102092.94
2023-06-07T02:03:20.837Z,102087.84
2023-06-07T02:05:52.456Z,102084.38
2023-06-07T02:08:30.980Z,102091.22
2023-06-07T02:11:04.261Z,102098.09
2023-06-07T02:13:37.412Z,102092.09
2023-06-07T02:16:10.124Z,102090.38
2023-06-07T02:18:41.648Z,102098.13
2023-06-07T02:21:10.371Z,102090.34
2023-06-07T02:23:43.474Z,102095.47
2023-06-07T02:26:11.732Z,102095.44
2023-06-07T02:28:39.704Z,102093.75
2023-06-07T02:31:09.200Z,102098.84
2023-06-07T02:33:37.441Z,102091.13
2023-06-07T02:36:05.797Z,102097.09
2023-06-07T02:38:34.182Z,102102.16
2023-06-07T02:41:02.417Z,102099.53
2023-06-07T02:43:30.336Z,102102.09
2023-06-07T02:45:58.633Z,102108.94
2023-06-07T02:48:28.221Z,102106.19
2023-06-07T02:50:56.257Z,102113.88
2023-06-07T02:53:24.314Z,102118.88
2023-06-07T02:55:52.409Z,102120.44
2023-06-07T02:58:20.520Z,102123.72
2023-06-07T03:00:51.392Z,102119.41
2023-06-07T03:03:19.703Z,102122.78
2023-06-07T03:05:50.815Z,102123.50
2023-06-07T03:08:18.878Z,102125.97
2023-06-07T03:10:46.842Z,102123.25
2023-06-07T03:13:15.079Z,102084.72
2023-06-07T03:15:43.687Z,102098.19
2023-06-07T03:18:15.488Z,102121.03
2023-06-07T03:20:44.586Z,102124.22
2023-06-07T03:23:14.009Z,102123.38
2023-06-07T03:25:42.093Z,102127.50
2023-06-07T03:28:10.320Z,102120.44
2023-06-07T03:30:38.222Z,102132.31
2023-06-07T03:33:06.477Z,102138.97
2023-06-07T03:35:34.628Z,102134.47
2023-06-07T03:38:02.645Z,102131.63
2023-06-07T03:40:32.592Z,102136.53
2023-06-07T03:43:01.107Z,102136.22
2023-06-07T03:45:29.121Z,102135.03
2023-06-07T03:47:58.302Z,102135.56
2023-06-07T03:50:26.468Z,102140.41
2023-06-07T03:52:54.459Z,102140.03
2023-06-07T03:55:22.399Z,102103.22
2023-06-07T03:57:57.323Z,102140.34
2023-06-07T04:00:28.355Z,102144.25
2023-06-07T04:02:56.746Z,102144.69
2023-06-07T04:05:26.574Z,102140.16
2023-06-07T04:08:00.871Z,102142.06
2023-06-07T04:10:28.902Z,102143.09
2023-06-07T04:12:58.375Z,102143.00
2023-06-07T04:15:26.418Z,102145.19
2023-06-07T04:17:55.811Z,102135.28
2023-06-07T04:20:24.300Z,102142.59
2023-06-07T04:22:53.365Z,102125.94
2023-06-07T04:25:23.262Z,102129.72
2023-06-07T04:27:52.323Z,102138.09
2023-06-07T04:30:21.767Z,102139.34
2023-06-07T04:32:51.182Z,102135.69
2023-06-07T04:35:20.666Z,102138.47
2023-06-07T04:37:49.098Z,102141.72
2023-06-07T04:40:17.377Z,102137.78
2023-06-07T04:42:47.792Z,102137.31
2023-06-07T04:45:15.756Z,102139.63
2023-06-07T04:47:46.426Z,102139.47
2023-06-07T04:50:14.904Z,102136.03
2023-06-07T04:52:45.115Z,102133.03
2023-06-07T04:55:15.498Z,102147.22
2023-06-07T04:57:44.746Z,102146.31
2023-06-07T05:00:15.465Z,102148.72
2023-06-07T05:02:45.498Z,102146.59
2023-06-07T05:05:14.793Z,102144.69
2023-06-07T05:07:43.466Z,102152.44
2023-06-07T05:10:12.893Z,102150.56
2023-06-07T05:12:42.034Z,102149.97
2023-06-07T05:15:11.169Z,102147.44
2023-06-07T05:17:46.405Z,102148.81
2023-06-07T05:20:14.970Z,102143.66
2023-06-07T05:22:43.819Z,102146.97
2023-06-07T05:25:13.161Z,102146.75
2023-06-07T05:27:41.685Z,102149.38
2023-06-07T05:30:10.788Z,102139.72
2023-06-07T05:32:39.115Z,102145.59
2023-06-07T05:35:09.657Z,102140.91
2023-06-07T05:37:39.168Z,102141.91
2023-06-07T05:40:09.797Z,102139.75
2023-06-07T05:42:39.755Z,102143.91
2023-06-07T05:45:08.769Z,102146.63
2023-06-07T05:47:39.420Z,102143.47
2023-06-07T05:50:11.248Z,102148.88
2023-06-07T05:52:41.611Z,102125.59
2023-06-07T05:55:09.880Z,102151.78
2023-06-07T05:57:38.490Z,102150.81
2023-06-07T06:00:11.412Z,102150.03
2023-06-07T06:02:39.787Z,102143.69
2023-06-07T06:05:10.122Z,102120.31
2023-06-07T06:07:38.329Z,102154.94
2023-06-07T06:10:07.567Z,102145.31
2023-06-07T06:12:35.802Z,102144.41
2023-06-07T06:15:03.962Z,102156.88
2023-06-07T06:17:32.304Z,102151.28
2023-06-07T06:20:00.319Z,102149.28
2023-06-07T06:22:29.811Z,102153.00
2023-06-07T06:24:58.351Z,102154.09
2023-06-07T06:27:26.443Z,102150.72
2023-06-07T06:29:54.549Z,102155.69
2023-06-07T06:32:22.705Z,102156.75
2023-06-07T06:34:50.921Z,102163.19
2023-06-07T06:37:19.232Z,102167.34
2023-06-07T06:39:49.466Z,102170.53
2023-06-07T06:42:17.438Z,102169.69
2023-06-07T06:44:45.555Z,102170.19
2023-06-07T06:47:13.715Z,102168.19
2023-06-07T06:49:41.914Z,102172.03
2023-06-07T06:52:10.080Z,102171.09
2023-06-07T06:54:38.115Z,102164.38
2023-06-07T06:57:09.412Z,102170.44
2023-06-07T06:59:41.907Z,102170.97
2023-06-07T07:02:10.203Z,102167.53
2023-06-07T07:04:38.357Z,102165.78
2023-06-07T07:07:07.154Z,102177.00
2023-06-07T07:09:35.273Z,102129.16
2023-06-07T07:12:03.248Z,102169.94
2023-06-07T07:14:32.740Z,102173.53
2023-06-07T07:17:00.992Z,102161.84
2023-06-07T07:19:29.098Z,102173.16
2023-06-07T07:21:59.955Z,102178.09
2023-06-07T07:24:28.017Z,102174.97
2023-06-07T07:26:55.883Z,102170.91
2023-06-07T07:29:23.952Z,102181.13
2023-06-07T07:31:53.437Z,102167.19
2023-06-07T07:34:21.457Z,102175.88
2023-06-07T07:36:51.427Z,102179.13
2023-06-07T07:39:20.114Z,102176.19
2023-06-07T07:41:48.104Z,102178.63
2023-06-07T07:44:16.196Z,102172.00
2023-06-07T07:46:44.380Z,102176.09
2023-06-07T07:49:13.706Z,102170.28
2023-06-07T07:51:43.755Z,102159.44
2023-06-07T07:54:11.716Z,102178.03
2023-06-07T07:56:39.872Z,102173.50
2023-06-07T07:59:08.154Z,102171.22
2023-06-07T08:01:36.487Z,102176.94
2023-06-07T08:04:04.588Z,102173.47
2023-06-07T08:06:34.435Z,102174.94
2023-06-07T08:09:02.542Z,102167.13
2023-06-07T08:11:30.665Z,102171.28
2023-06-07T08:13:58.848Z,102175.25
2023-06-07T08:16:27.276Z,102150.00
2023-06-07T08:18:58.324Z,102172.13
2023-06-07T08:21:27.239Z,102176.16
2023-06-07T08:23:58.180Z,102177.44
2023-06-07T08:26:26.252Z,102181.19
2023-06-07T08:28:54.286Z,102176.22
2023-06-07T08:31:23.624Z,102170.75
2023-06-07T08:33:51.726Z,102175.03
2023-06-07T08:36:20.035Z,102165.16
2023-06-07T08:38:48.173Z,102176.19
2023-06-07T08:41:17.641Z,102168.06
2023-06-07T08:43:48.878Z,102170.84
2023-06-07T08:46:18.993Z,102174.59
2023-06-07T08:48:53.459Z,102171.19
2023-06-07T08:51:23.467Z,102168.75
2023-06-07T08:53:57.290Z,102171.88
2023-06-07T08:56:28.482Z,102146.38
2023-06-07T08:58:57.287Z,102158.72
2023-06-07T09:01:25.972Z,102158.59
2023-06-07T09:03:54.344Z,102162.28
2023-06-07T09:06:23.737Z,102166.63
2023-06-07T09:08:52.146Z,102161.63
2023-06-07T09:11:20.405Z,102157.88
2023-06-07T09:13:50.074Z,102166.53
2023-06-07T09:16:19.621Z,102163.03
2023-06-07T09:18:54.735Z,102161.88
2023-06-07T09:21:24.406Z,102167.56
2023-06-07T09:23:53.553Z,102170.38
2023-06-07T09:26:24.272Z,102160.19
2023-06-07T09:28:54.056Z,102159.69
2023-06-07T09:31:31.252Z,102139.44
2023-06-07T09:33:59.594Z,102155.13
2023-06-07T09:36:30.099Z,102153.88
2023-06-07T09:38:58.483Z,102151.63
2023-06-07T09:41:33.697Z,102151.78
2023-06-07T09:44:03.470Z,102145.38
2023-06-07T09:46:37.584Z,102142.59
2023-06-07T09:49:05.792Z,102135.59
2023-06-07T09:51:41.441Z,102149.53
2023-06-07T09:54:10.762Z,102157.31
2023-06-07T09:56:41.555Z,102154.28
2023-06-07T09:59:15.328Z,102149.34
2023-06-07T10:01:46.994Z,102150.41
2023-06-07T10:04:20.480Z,102152.41
2023-06-07T10:06:53.571Z,102155.53
2023-06-07T10:09:24.560Z,102146.44
2023-06-07T10:11:56.824Z,102147.41
2023-06-07T10:14:34.518Z,102150.69
2023-06-07T10:17:06.676Z,102151.91
2023-06-07T10:19:39.004Z,102136.38
2023-06-07T10:22:09.517Z,102139.53
2023-06-07T10:24:47.821Z,102120.78
2023-06-07T10:27:18.595Z,102140.13
2023-06-07T10:30:03.370Z,102141.31
2023-06-07T10:32:34.927Z,102136.03
2023-06-07T10:35:05.170Z,102136.91
2023-06-07T10:37:35.067Z,102133.75
2023-06-07T10:40:07.318Z,102134.13
2023-06-07T10:42:36.197Z,102133.13
2023-06-07T10:45:06.370Z,102125.63
2023-06-07T10:47:34.607Z,102127.03
2023-06-07T10:50:09.245Z,102123.47
2023-06-07T10:52:57.028Z,102122.53
2023-06-07T10:55:32.619Z,102116.69
2023-06-07T10:58:01.634Z,102121.34
2023-06-07T11:00:34.342Z,102122.88
2023-06-07T11:03:45.278Z,102112.28
2023-06-07T11:06:14.090Z,102109.94
2023-06-07T11:08:42.387Z,102110.59
2023-06-07T11:11:52.818Z,102115.72
2023-06-07T11:14:23.525Z,102106.81
2023-06-07T11:16:53.166Z,102114.53
2023-06-07T11:19:24.252Z,102109.59
2023-06-07T11:22:11.068Z,102102.50
2023-06-07T11:24:39.951Z,102111.97
2023-06-07T11:27:15.513Z,102102.03
2023-06-07T11:29:45.152Z,102101.88
2023-06-07T11:32:14.808Z,102099.38
2023-06-07T11:34:43.502Z,102104.66
2023-06-07T11:37:17.899Z,102103.72
2023-06-07T11:39:46.823Z,102100.59
2023-06-07T11:42:15.069Z,102105.50
2023-06-07T11:44:43.678Z,102104.88
2023-06-07T11:47:12.030Z,102106.13
2023-06-07T11:49:42.362Z,102103.22
2023-06-07T11:52:11.075Z,102110.28
2023-06-07T11:54:45.475Z,102096.63
2023-06-07T11:57:13.604Z,102091.19
2023-06-07T11:59:43.548Z,102093.00
2023-06-07T12:02:14.054Z,102086.31
2023-06-07T12:04:45.770Z,102083.94
2023-06-07T12:07:21.059Z,102084.66
2023-06-07T12:09:52.086Z,102085.59
2023-06-07T12:12:20.458Z,102080.41
2023-06-07T12:14:52.564Z,102083.06
2023-06-07T12:17:22.707Z,102085.38
2023-06-07T12:19:52.268Z,102078.16
2023-06-07T12:22:20.334Z,102084.19
2023-06-07T12:24:49.013Z,102085.31
2023-06-07T12:27:26.581Z,102087.25
2023-06-07T12:29:55.771Z,102085.81
2023-06-07T12:32:24.176Z,102055.09
2023-06-07T12:34:53.738Z,102079.66
2023-06-07T12:37:21.723Z,102076.81
2023-06-07T12:39:53.094Z,102079.75
2023-06-07T12:42:21.194Z,102074.44
2023-06-07T12:44:50.114Z,102079.63
2023-06-07T12:47:21.347Z,102041.13
2023-06-07T12:49:49.500Z,102072.47
2023-06-07T12:52:19.378Z,102079.81
2023-06-07T12:54:47.599Z,102076.31
2023-06-07T12:57:15.704Z,102073.25
2023-06-07T12:59:43.654Z,102077.91
2023-06-07T13:02:11.784Z,102073.31
2023-06-07T13:04:40.303Z,102066.94
2023-06-07T13:07:08.854Z,102068.19
2023-06-07T13:09:38.836Z,102067.00
2023-06-07T13:12:07.724Z,102072.09
2023-06-07T13:14:36.146Z,102060.41
2023-06-07T13:17:04.296Z,102067.47
2023-06-07T13:19:32.493Z,102055.03
2023-06-07T13:22:00.686Z,102068.31
2023-06-07T13:24:28.643Z,102072.69
2023-06-07T13:26:58.197Z,102066.41
2023-06-07T13:29:26.434Z,102064.09
2023-06-07T13:31:54.446Z,102063.63
2023-06-07T13:34:22.620Z,102055.13
2023-06-07T13:36:50.661Z,102060.47
2023-06-07T13:39:19.735Z,102060.28
2023-06-07T13:41:48.130Z,102062.81
2023-06-07T13:44:19.083Z,102055.97
2023-06-07T13:46:47.429Z,102062.63
2023-06-07T13:49:16.085Z,102035.66
2023-06-07T13:51:44.260Z,102051.38
2023-06-07T13:54:12.286Z,102049.09
2023-06-07T13:56:40.343Z,102042.34
2023-06-07T13:59:08.396Z,102035.41
2023-06-07T14:01:38.876Z,102033.88
2023-06-07T14:04:08.758Z,102032.41
2023-06-07T14:06:38.541Z,102049.97
2023-06-07T14:09:07.412Z,102036.06
2023-06-07T14:11:38.920Z,102034.50
2023-06-07T14:14:07.050Z,102028.69
2023-06-07T14:16:35.080Z,102034.16
2023-06-07T14:19:06.544Z,102030.38
2023-06-07T14:21:35.756Z,102029.88
2023-06-07T14:24:04.308Z,102027.66
2023-06-07T14:26:32.497Z,102018.81
2023-06-07T14:29:03.600Z,102021.81
2023-06-07T14:31:33.532Z,102018.19
2023-06-07T14:34:01.800Z,101992.31
2023-06-07T14:36:31.169Z,101977.44
2023-06-07T14:39:01.363Z,102011.66
2023-06-07T14:41:29.142Z,102012.59
2023-06-07T14:43:57.232Z,102008.59
2023-06-07T14:46:25.384Z,102003.34
2023-06-07T14:48:53.601Z,102006.63
2023-06-07T14:51:24.449Z,102002.41
2023-06-07T14:53:54.159Z,101998.19
2023-06-07T14:56:22.738Z,102000.69
2023-06-07T14:58:50.690Z,102000.47
2023-06-07T15:01:18.801Z,102000.91
2023-06-07T15:03:47.019Z,101996.69
2023-06-07T15:06:15.001Z,102003.44
2023-06-07T15:08:43.337Z,102001.31
2023-06-07T15:11:12.808Z,101988.91
2023-06-07T15:13:41.057Z,101992.78
2023-06-07T15:16:09.231Z,101992.19
2023-06-07T15:18:37.221Z,101995.72
2023-06-07T15:21:05.228Z,101990.88
2023-06-07T15:23:33.733Z,101980.78
2023-06-07T15:26:01.716Z,101982.03
2023-06-07T15:28:31.316Z,101978.09
2023-06-07T15:30:59.858Z,101985.97
2023-06-07T15:33:27.898Z,101984.25
2023-06-07T15:35:55.917Z,101983.75
2023-06-07T15:38:24.489Z,101980.88
2023-06-07T15:40:52.481Z,101980.28
2023-06-07T15:43:20.695Z,101970.03
2023-06-07T15:45:50.909Z,101976.72
2023-06-07T15:48:19.402Z,101969.44
2023-06-07T15:50:47.418Z,101970.22
2023-06-07T15:53:18.425Z,101972.31
2023-06-07T15:55:46.885Z,101970.66
2023-06-07T15:58:14.974Z,101963.06
2023-06-07T16:00:47.433Z,101964.75
2023-06-07T16:03:17.428Z,101957.81
2023-06-07T16:05:45.448Z,101953.59
2023-06-07T16:08:14.692Z,101958.63
2023-06-07T16:10:43.077Z,101953.06
2023-06-07T16:13:11.154Z,101953.81
2023-06-07T16:15:39.489Z,101947.31
2023-06-07T16:18:07.998Z,101923.19
2023-06-07T16:20:37.476Z,101944.34
2023-06-07T16:23:05.506Z,101945.03
2023-06-07T16:25:33.748Z,101944.97
2023-06-07T16:28:01.820Z,101947.19
2023-06-07T16:30:29.903Z,101944.88
2023-06-07T16:32:58.373Z,101940.34
2023-06-07T16:35:26.394Z,101942.63
2023-06-07T16:37:55.948Z,101940.56
2023-06-07T16:40:24.236Z,101930.91
2023-06-07T16:42:52.121Z,101938.66
2023-06-07T16:45:20.485Z,101932.03
2023-06-07T16:47:49.607Z,101934.84
2023-06-07T16:50:17.656Z,101934.25
2023-06-07T16:52:45.685Z,101932.69
2023-06-07T16:55:18.037Z,101933.81
2023-06-07T16:57:46.021Z,101933.41
2023-06-07T17:00:14.924Z,101918.16
2023-06-07T17:02:43.131Z,101927.09
2023-06-07T17:05:11.791Z,101932.03
2023-06-07T17:07:39.809Z,101923.63
2023-06-07T17:10:09.695Z,101927.94
2023-06-07T17:12:39.201Z,101923.00
2023-06-07T17:15:08.603Z,101918.22
2023-06-07T17:17:36.698Z,101921.63
2023-06-07T17:20:06.084Z,101922.34
2023-06-07T17:22:35.807Z,101916.81
2023-06-07T17:25:03.858Z,101919.53
2023-06-07T17:27:32.077Z,101919.66
2023-06-07T17:30:01.888Z,101915.31
2023-06-07T17:32:29.892Z,101899.88
2023-06-07T17:34:57.948Z,101915.31
2023-06-07T17:37:26.056Z,101917.00
2023-06-07T17:39:54.988Z,101921.75
2023-06-07T17:42:24.788Z,101878.28
2023-06-07T17:44:53.734Z,101911.50
2023-06-07T17:47:24.503Z,101911.00
2023-06-07T17:49:52.466Z,101913.84
2023-06-07T17:52:23.580Z,101913.88
2023-06-07T17:54:51.932Z,101918.56
2023-06-07T17:57:19.888Z,101919.47
2023-06-07T17:59:49.037Z,101908.75
2023-06-07T18:02:17.182Z,101907.44
2023-06-07T18:04:46.880Z,101915.38
2023-06-07T18:07:15.193Z,101881.47
2023-06-07T18:09:45.258Z,101909.56
2023-06-07T18:12:14.308Z,101919.09
2023-06-07T18:14:42.616Z,101910.91
2023-06-07T18:17:11.494Z,101905.34
2023-06-07T18:19:39.765Z,101920.22
2023-06-07T18:22:12.362Z,101916.56
2023-06-07T18:24:40.871Z,101919.84
2023-06-07T18:27:09.633Z,101928.06
2023-06-07T18:29:37.868Z,101918.25
2023-06-07T18:32:08.226Z,101927.50
2023-06-07T18:34:36.035Z,101932.06
2023-06-07T18:37:05.694Z,101931.81
2023-06-07T18:39:36.056Z,101930.84
2023-06-07T18:42:04.286Z,101928.50
2023-06-07T18:44:33.286Z,101929.41
2023-06-07T18:47:03.148Z,101934.19
2023-06-07T18:49:31.700Z,101938.25
2023-06-07T18:52:01.056Z,101928.78
2023-06-07T18:54:29.040Z,101926.63
2023-06-07T18:56:58.724Z,101937.50
2023-06-07T18:59:26.849Z,101930.53
2023-06-07T19:01:56.418Z,101929.47
2023-06-07T19:04:25.096Z,101933.03
2023-06-07T19:06:54.747Z,101936.22
2023-06-07T19:09:22.684Z,101934.00
2023-06-07T19:11:50.873Z,101922.03
2023-06-07T19:14:20.545Z,101930.59
2023-06-07T19:16:48.734Z,101923.94
2023-06-07T19:19:16.914Z,101934.38
2023-06-07T19:21:45.058Z,101935.91
2023-06-07T19:24:13.297Z,101924.72
2023-06-07T19:26:41.377Z,101934.94
2023-06-07T19:29:09.581Z,101929.78
2023-06-07T19:31:38.925Z,101921.50
2023-06-07T19:34:09.116Z,101931.47
2023-06-07T19:36:38.697Z,101932.41
2023-06-07T19:39:06.704Z,101923.81
2023-06-07T19:41:34.964Z,101929.34
2023-06-07T19:44:02.912Z,101922.94
2023-06-07T19:46:30.976Z,101910.06
2023-06-07T19:49:01.553Z,101912.81
2023-06-07T19:51:29.671Z,101915.63
2023-06-07T19:53:58.213Z,101914.63
2023-06-07T19:56:27.111Z,101874.91
2023-06-07T19:58:55.361Z,101913.16
2023-06-07T20:01:23.479Z,101918.72
2023-06-07T20:04:09.200Z,101924.97
2023-06-07T20:06:38.324Z,101924.19
2023-06-07T20:09:11.628Z,101924.63
2023-06-07T20:11:39.577Z,101923.13
2023-06-07T20:14:07.540Z,101923.13
2023-06-07T20:16:35.890Z,101917.72
2023-06-07T20:19:07.258Z,101917.53
2023-06-07T20:21:35.270Z,101924.53
2023-06-07T20:24:03.702Z,101911.31
2023-06-07T20:26:31.724Z,101904.56
2023-06-07T20:29:02.446Z,101902.28
2023-06-07T20:31:30.904Z,101900.59
2023-06-07T20:33:58.925Z,101871.50
2023-06-07T20:36:28.224Z,101895.09
2023-06-07T20:38:56.560Z,101896.34
2023-06-07T20:41:24.542Z,101866.63
2023-06-07T20:43:52.409Z,101875.38
2023-06-07T20:46:20.760Z,101898.78
2023-06-07T20:48:48.822Z,101892.63
2023-06-07T20:51:17.075Z,101895.63
2023-06-07T20:53:46.685Z,101891.31
2023-06-07T20:56:14.739Z,101887.28
2023-06-07T20:58:42.853Z,101887.84
2023-06-07T21:01:11.339Z,101892.47
2023-06-07T21:03:40.832Z,101894.94
2023-06-07T21:06:09.175Z,101892.16
2023-06-07T21:08:37.585Z,101888.16
2023-06-07T21:11:07.243Z,101884.81
2023-06-07T21:13:35.556Z,101874.31
2023-06-07T21:16:04.619Z,101880.47
2023-06-07T21:18:32.640Z,101855.97
2023-06-07T21:21:00.654Z,101873.72
2023-06-07T21:23:28.834Z,101868.97
2023-06-07T21:25:57.055Z,101876.53
2023-06-07T21:28:26.532Z,101873.94
2023-06-07T21:30:54.700Z,101871.31
2023-06-07T21:33:22.883Z,101845.81
2023-06-07T21:35:50.834Z,101873.94
2023-06-07T21:38:19.003Z,101870.00
2023-06-07T21:40:47.032Z,101866.25
2023-06-07T21:43:14.997Z,101863.66
2023-06-07T21:45:44.501Z,101859.31
2023-06-07T21:48:12.652Z,101856.81
2023-06-07T21:50:40.860Z,101855.50
2023-06-07T21:53:09.023Z,101857.88
2023-06-07T21:55:37.041Z,101847.41
2023-06-07T21:58:05.063Z,101851.59
2023-06-07T22:00:33.037Z,101851.53
2023-06-07T22:03:02.405Z,101851.25
2023-06-07T22:05:30.585Z,101853.44
2023-06-07T22:07:58.684Z,101850.00
2023-06-07T22:10:26.732Z,101852.22
2023-06-07T22:12:55.495Z,101843.72
2023-06-07T22:15:26.381Z,101854.00
2023-06-07T22:17:55.309Z,101845.94
2023-06-07T22:20:26.187Z,101852.25
2023-06-07T22:22:54.275Z,101855.28
2023-06-07T22:25:39.316Z,101857.84
2023-06-07T22:28:10.903Z,101851.34
2023-06-07T22:30:41.078Z,101854.97
2023-06-07T22:33:10.489Z,101842.78
2023-06-07T22:35:40.993Z,101857.81
2023-06-07T22:38:13.317Z,101852.34
2023-06-07T22:40:43.964Z,101844.78
2023-06-07T22:43:11.718Z,101842.13
2023-06-07T22:45:39.688Z,101788.31
2023-06-07T22:48:11.194Z,101835.47
2023-06-07T22:50:43.156Z,101835.72
2023-06-07T22:53:14.012Z,101834.03
2023-06-07T22:55:43.093Z,101833.56
2023-06-07T22:58:11.332Z,101836.94
2023-06-07T23:00:41.851Z,101832.28
2023-06-07T23:03:10.934Z,101838.38
2023-06-07T23:05:40.498Z,101839.91
2023-06-07T23:08:11.194Z,101834.41
2023-06-07T23:10:39.158Z,101833.00
2023-06-07T23:13:09.930Z,101838.94
2023-06-07T23:15:42.930Z,101837.78
2023-06-07T23:18:12.573Z,101836.81
2023-06-07T23:20:42.847Z,101829.56
2023-06-07T23:23:13.695Z,101824.38
2023-06-07T23:25:42.035Z,101802.63
2023-06-07T23:28:09.945Z,101825.03
2023-06-07T23:30:38.661Z,101780.31
2023-06-07T23:33:08.712Z,101823.66
2023-06-07T23:35:36.870Z,101824.00
2023-06-07T23:38:06.318Z,101823.56
2023-06-07T23:40:34.511Z,101819.19
2023-06-07T23:43:03.476Z,101808.66
2023-06-07T23:45:31.881Z,101814.25
2023-06-07T23:48:07.355Z,101819.56
2023-06-07T23:50:35.807Z,101812.69
2023-06-07T23:53:07.698Z,101806.22
2023-06-07T23:55:37.637Z,101813.06
2023-06-07T23:58:06.930Z,101812.28
